Time;durP1;ratioP1;P1;durP2;ratioP2;P2;SDS_P1;SDS_P2;PMS_P1;PMS_P2;Temp;Humidity;BMP_temperature;BMP_pressure;BME280_temperature;BME280_humidity;BME280_pressure;Samples;Min_cycle;Max_cycle;Signal;HPM_P1;HPM_P2
2022/05/25 00:00:33;;;;;;;10.30;6.70;;;;;;;;;;5129586;27;20019;-78
2022/05/25 00:03:00;;;;;;;16.73;7.83;;;;;;;;;;5130995;27;20023;-82
2022/05/25 00:05:27;;;;;;;10.40;7.27;;;;;;;;;;5130781;27;20382;-82
2022/05/25 00:07:54;;;;;;;11.17;7.73;;;;;;;;;;5133121;27;20156;-82
2022/05/25 00:10:20;;;;;;;14.83;7.63;;;;;;;;;;5136104;27;20023;-82
2022/05/25 00:12:47;;;;;;;15.83;7.77;;;;;;;;;;5136196;27;20158;-81
2022/05/25 00:15:14;;;;;;;14.93;7.30;;;;;;;;;;5135757;27;20039;-80
2022/05/25 00:17:41;;;;;;;10.80;7.27;;;;;;;;;;5136028;27;20382;-79
2022/05/25 00:20:09;;;;;;;11.70;7.17;;;;;;;;;;5133671;27;20051;-78
2022/05/25 00:22:43;;;;;;;11.97;7.40;;;;;;;;;;5149406;27;20038;-77
2022/05/25 00:25:12;;;;;;;15.30;6.87;;;;;;;;;;5151092;27;20115;-78
2022/05/25 00:27:39;;;;;;;13.07;7.20;;;;;;;;;;5149788;27;20026;-74
2022/05/25 00:30:07;;;;;;;17.73;7.73;;;;;;;;;;5150880;27;20042;-74
2022/05/25 00:32:34;;;;;;;11.90;6.83;;;;;;;;;;5154402;27;20023;-74
2022/05/25 00:35:01;;;;;;;11.17;7.03;;;;;;;;;;5154182;27;20058;-74
2022/05/25 00:37:27;;;;;;;10.73;6.67;;;;;;;;;;5153773;27;20023;-74
2022/05/25 00:39:54;;;;;;;8.50;6.90;;;;;;;;;;5153919;27;20022;-74
2022/05/25 00:42:21;;;;;;;11.17;6.50;;;;;;;;;;5152535;27;20027;-74
2022/05/25 00:44:48;;;;;;;8.93;5.87;;;;;;;;;;5148677;27;20421;-75
2022/05/25 00:47:17;;;;;;;8.20;5.40;;;;;;;;;;5148057;27;20068;-75
2022/05/25 00:49:44;;;;;;;10.13;6.27;;;;;;;;;;5148927;27;20031;-73
2022/05/25 00:52:13;;;;;;;9.20;6.57;;;;;;;;;;5133463;27;20038;-73
2022/05/25 00:54:41;;;;;;;8.20;5.60;;;;;;;;;;5132805;27;20027;-73
2022/05/25 00:57:14;;;;;;;11.60;6.60;;;;;;;;;;5133110;27;20091;-73
2022/05/25 00:59:47;;;;;;;9.23;6.13;;;;;;;;;;5133250;28;20491;-73
2022/05/25 01:02:15;;;;;;;8.37;6.07;;;;;;;;;;5133319;28;20433;-73
2022/05/25 01:04:41;;;;;;;9.40;6.67;;;;;;;;;;5131647;28;20027;-73
2022/05/25 01:07:11;;;;;;;8.40;5.53;;;;;;;;;;5127573;28;20019;-73
2022/05/25 01:09:56;;;;;;;9.97;6.33;;;;;;;;;;5127747;28;20031;-73
2022/05/25 01:12:22;;;;;;;;;;;;;;;;;;5128391;28;20027;-73
2022/05/25 01:14:55;;;;;;;11.07;5.50;;;;;;;;;;5128634;28;19911;-71
2022/05/25 01:17:25;;;;;;;12.53;6.97;;;;;;;;;;5132945;28;20023;-73
2022/05/25 01:20:09;;;;;;;11.67;6.27;;;;;;;;;;5132598;28;20027;-72
2022/05/25 01:22:51;;;;;;;11.25;6.65;;;;;;;;;;5133232;27;20381;-73
2022/05/25 01:25:18;;;;;;;15.17;7.13;;;;;;;;;;5153760;27;20418;-73
2022/05/25 01:27:46;;;;;;;8.03;5.80;;;;;;;;;;5150942;27;20377;-74
2022/05/25 01:30:15;;;;;;;9.37;6.43;;;;;;;;;;5134663;27;20114;-73
2022/05/25 01:32:42;;;;;;;11.60;6.90;;;;;;;;;;5127568;28;20050;-74
2022/05/25 01:35:23;;;;;;;12.63;6.97;;;;;;;;;;5109050;28;20043;-74
2022/05/25 01:38:01;;;;;;;9.00;7.20;;;;;;;;;;5131615;27;20431;-74
2022/05/25 01:40:34;;;;;;;9.40;6.33;;;;;;;;;;5143004;27;20023;-74
2022/05/25 01:43:11;;;;;;;8.97;7.20;;;;;;;;;;5152496;27;20015;-74
2022/05/25 01:45:47;;;;;;;14.20;8.50;;;;;;;;;;5132856;28;20020;-73
2022/05/25 01:48:15;;;;;;;13.97;9.27;;;;;;;;;;5132717;28;20043;-73
2022/05/25 01:50:54;;;;;;;15.07;10.13;;;;;;;;;;5128789;28;20039;-73
2022/05/25 01:53:23;;;;;;;17.80;11.40;;;;;;;;;;5127373;28;20030;-74
2022/05/25 01:55:52;;;;;;;18.70;11.27;;;;;;;;;;5132790;27;20023;-73
2022/05/25 01:58:21;;;;;;;14.93;11.00;;;;;;;;;;5149226;27;20434;-73
2022/05/25 02:00:49;;;;;;;17.60;10.40;;;;;;;;;;5155551;27;20027;-72
2022/05/25 02:06:15;;;;;;;12.37;9.37;;;;;;;;;;5156968;27;20074;-72
2022/05/25 02:08:57;;;;;;;14.83;8.43;;;;;;;;;;5157211;27;20019;-73
2022/05/25 02:11:27;;;;;;;17.47;10.63;;;;;;;;;;5156557;27;20048;-73
2022/05/25 02:14:02;;;;;;;17.23;10.17;;;;;;;;;;5151167;27;20027;-73
2022/05/25 02:16:37;;;;;;;13.67;9.07;;;;;;;;;;5148131;27;20043;-74
2022/05/25 02:19:10;;;;;;;13.30;8.60;;;;;;;;;;5130747;27;20034;-73
2022/05/25 02:21:55;;;;;;;15.13;8.90;;;;;;;;;;5130751;27;20102;-73
2022/05/25 02:24:28;;;;;;;10.70;8.30;;;;;;;;;;5136269;27;20499;-73
2022/05/25 02:27:07;;;;;;;16.20;9.20;;;;;;;;;;5136052;27;20015;-73
2022/05/25 02:29:46;;;;;;;14.03;7.87;;;;;;;;;;5135965;27;20151;-73
2022/05/25 02:32:21;;;;;;;14.90;8.73;;;;;;;;;;5135899;27;20401;-73
2022/05/25 02:34:50;;;;;;;14.73;9.93;;;;;;;;;;5133549;27;20464;-73
2022/05/25 02:37:18;;;;;;;16.47;8.67;;;;;;;;;;5130384;27;20035;-73
2022/05/25 02:39:45;;;;;;;12.63;8.40;;;;;;;;;;5130208;27;20027;-73
2022/05/25 02:42:15;;;;;;;13.70;8.83;;;;;;;;;;5139072;27;20035;-73
2022/05/25 02:44:42;;;;;;;13.90;8.97;;;;;;;;;;5152175;27;20473;-73
2022/05/25 02:47:09;;;;;;;13.43;7.87;;;;;;;;;;5156387;27;20079;-73
2022/05/25 02:49:36;;;;;;;11.70;7.83;;;;;;;;;;5141395;27;20192;-73
2022/05/25 02:52:03;;;;;;;14.30;8.10;;;;;;;;;;5150977;27;20031;-73
2022/05/25 02:54:29;;;;;;;12.43;7.40;;;;;;;;;;5138447;27;20038;-73
2022/05/25 02:56:56;;;;;;;13.63;8.33;;;;;;;;;;5149952;27;20087;-73
2022/05/25 02:59:23;;;;;;;12.40;9.20;;;;;;;;;;5132721;27;20110;-73
2022/05/25 03:01:49;;;;;;;14.57;8.27;;;;;;;;;;5130110;27;20096;-73
2022/05/25 03:04:16;;;;;;;9.73;7.63;;;;;;;;;;5129692;27;20016;-73
2022/05/25 03:06:43;;;;;;;10.57;7.40;;;;;;;;;;5130469;27;20023;-73
2022/05/25 03:09:10;;;;;;;11.03;7.30;;;;;;;;;;5142224;27;20030;-73
2022/05/25 03:11:36;;;;;;;11.53;7.40;;;;;;;;;;5154985;27;20503;-73
2022/05/25 03:14:03;;;;;;;8.93;6.87;;;;;;;;;;5155435;27;20050;-73
2022/05/25 03:16:30;;;;;;;9.80;6.63;;;;;;;;;;5147829;27;20044;-73
2022/05/25 03:18:58;;;;;;;12.40;7.60;;;;;;;;;;5143353;27;20061;-73
2022/05/25 03:21:25;;;;;;;13.43;7.83;;;;;;;;;;5148618;27;20107;-73
2022/05/25 03:23:52;;;;;;;11.50;6.93;;;;;;;;;;5134115;27;20026;-73
2022/05/25 03:26:19;;;;;;;8.57;6.57;;;;;;;;;;5150085;27;20026;-73
2022/05/25 03:28:46;;;;;;;9.87;6.27;;;;;;;;;;5150136;27;20019;-73
2022/05/25 03:31:13;;;;;;;10.87;6.60;;;;;;;;;;5155437;27;20368;-73
2022/05/25 03:33:40;;;;;;;11.53;8.37;;;;;;;;;;5142042;27;20035;-73
2022/05/25 03:36:07;;;;;;;11.17;6.77;;;;;;;;;;5134844;27;20374;-73
2022/05/25 03:38:34;;;;;;;14.87;7.77;;;;;;;;;;5134478;27;20023;-73
2022/05/25 03:41:01;;;;;;;11.13;7.43;;;;;;;;;;5137814;27;20087;-73
2022/05/25 03:43:31;;;;;;;9.63;7.07;;;;;;;;;;5129154;27;20450;-73
2022/05/25 03:45:57;;;;;;;9.80;7.17;;;;;;;;;;5129073;27;20422;-73
2022/05/25 03:48:24;;;;;;;10.87;8.03;;;;;;;;;;5128844;27;20064;-73
2022/05/25 03:50:51;;;;;;;17.50;8.50;;;;;;;;;;5128975;27;20035;-73
2022/05/25 03:53:18;;;;;;;12.00;8.77;;;;;;;;;;5133667;27;20024;-73
2022/05/25 03:55:45;;;;;;;15.90;9.30;;;;;;;;;;5134197;27;20038;-73
2022/05/25 03:58:11;;;;;;;12.87;9.20;;;;;;;;;;5133894;27;20035;-73
2022/05/25 04:00:38;;;;;;;13.07;9.07;;;;;;;;;;5138645;27;20381;-73
2022/05/25 04:03:05;;;;;;;14.07;8.83;;;;;;;;;;5154854;27;20025;-73
2022/05/25 04:05:32;;;;;;;16.17;10.70;;;;;;;;;;5150065;27;20023;-73
2022/05/25 04:08:00;;;;;;;20.13;11.47;;;;;;;;;;5149562;27;20025;-73
2022/05/25 04:10:28;;;;;;;18.37;10.63;;;;;;;;;;5149232;27;20049;-73
2022/05/25 04:12:55;;;;;;;18.73;12.77;;;;;;;;;;5149147;27;20097;-74
2022/05/25 04:15:23;;;;;;;16.70;10.50;;;;;;;;;;5152585;27;20035;-73
2022/05/25 04:17:50;;;;;;;16.70;10.43;;;;;;;;;;5154603;27;20103;-73
2022/05/25 04:20:17;;;;;;;15.60;9.43;;;;;;;;;;5143115;27;20034;-73
2022/05/25 04:22:44;;;;;;;15.93;9.60;;;;;;;;;;5148547;27;20067;-72
2022/05/25 04:25:12;;;;;;;16.63;10.50;;;;;;;;;;5139658;27;20031;-73
2022/05/25 04:27:40;;;;;;;13.87;10.70;;;;;;;;;;5150556;27;20022;-73
2022/05/25 04:30:10;;;;;;;13.53;9.53;;;;;;;;;;5148617;27;20481;-73
2022/05/25 04:32:36;;;;;;;18.37;11.40;;;;;;;;;;5148885;27;20019;-73
2022/05/25 04:35:03;;;;;;;14.40;9.90;;;;;;;;;;5148752;27;20078;-73
2022/05/25 04:40:16;;;;;;;12.02;9.15;;;;;;;;;;5153946;27;20038;-73
2022/05/25 04:42:43;;;;;;;12.27;8.50;;;;;;;;;;5135778;27;20457;-73
2022/05/25 04:45:11;;;;;;;12.33;9.13;;;;;;;;;;5154011;27;20037;-73
2022/05/25 04:47:38;;;;;;;15.50;9.83;;;;;;;;;;5154236;27;20034;-73
2022/05/25 04:50:07;;;;;;;13.90;8.80;;;;;;;;;;5150009;27;20047;-73
2022/05/25 04:52:37;;;;;;;15.70;8.60;;;;;;;;;;5148623;27;20057;-72
2022/05/25 04:55:05;;;;;;;12.17;8.73;;;;;;;;;;5143984;27;20051;-73
2022/05/25 04:57:32;;;;;;;15.83;9.50;;;;;;;;;;5136058;27;20039;-74
2022/05/25 04:59:59;;;;;;;14.77;9.23;;;;;;;;;;5151408;27;20023;-74
2022/05/25 05:02:27;;;;;;;12.87;8.80;;;;;;;;;;5153556;27;20018;-74
2022/05/25 05:04:53;;;;;;;11.20;8.73;;;;;;;;;;5112630;28;20027;-74
2022/05/25 05:07:29;;;;;;;11.90;9.03;;;;;;;;;;5112638;28;20054;-74
2022/05/25 05:09:56;;;;;;;11.23;8.57;;;;;;;;;;5112425;28;20020;-73
2022/05/25 05:12:22;;;;;;;10.83;7.53;;;;;;;;;;5137525;27;20054;-74
2022/05/25 05:14:49;;;;;;;11.50;8.00;;;;;;;;;;5127015;28;20478;-73
2022/05/25 05:17:16;;;;;;;11.70;7.67;;;;;;;;;;5127453;28;20062;-74
2022/05/25 05:19:42;;;;;;;13.20;8.87;;;;;;;;;;5127773;28;20166;-74
2022/05/25 05:22:09;;;;;;;17.53;9.70;;;;;;;;;;5130440;28;20023;-73
2022/05/25 05:24:36;;;;;;;14.43;8.00;;;;;;;;;;5133019;28;20030;-74
2022/05/25 05:27:04;;;;;;;12.50;8.00;;;;;;;;;;5132980;28;20037;-74
2022/05/25 05:29:32;;;;;;;10.67;7.07;;;;;;;;;;5133049;28;20019;-74
2022/05/25 05:31:59;;;;;;;10.87;8.43;;;;;;;;;;5132340;27;20047;-74
2022/05/25 05:34:28;;;;;;;14.10;7.73;;;;;;;;;;5133119;27;20599;-74
2022/05/25 05:36:58;;;;;;;13.07;8.00;;;;;;;;;;5131632;27;20027;-74
2022/05/25 05:39:26;;;;;;;10.13;6.97;;;;;;;;;;5131451;27;20112;-74
2022/05/25 05:42:12;;;;;;;11.67;7.33;;;;;;;;;;5133384;27;20027;-74
2022/05/25 05:44:59;;;;;;;12.13;9.03;;;;;;;;;;5154597;27;20099;-73
2022/05/25 05:47:28;;;;;;;21.33;8.90;;;;;;;;;;5157399;27;20030;-73
2022/05/25 05:49:56;;;;;;;14.70;8.13;;;;;;;;;;5157388;27;20042;-73
2022/05/25 05:52:23;;;;;;;18.33;9.17;;;;;;;;;;5157401;27;20087;-73
2022/05/25 05:54:49;;;;;;;20.00;9.40;;;;;;;;;;5138598;27;20434;-73
2022/05/25 05:57:16;;;;;;;12.40;8.70;;;;;;;;;;5153050;27;20373;-73
2022/05/25 05:59:44;;;;;;;10.47;8.60;;;;;;;;;;5151990;27;20454;-73
2022/05/25 06:02:11;;;;;;;12.13;8.87;;;;;;;;;;5151824;27;20444;-73
2022/05/25 06:04:38;;;;;;;13.97;9.33;;;;;;;;;;5151751;27;20023;-73
2022/05/25 06:07:04;;;;;;;12.87;9.40;;;;;;;;;;5154932;27;20026;-74
2022/05/25 06:09:31;;;;;;;14.13;9.43;;;;;;;;;;5157185;27;20027;-74
2022/05/25 06:11:58;;;;;;;16.67;9.67;;;;;;;;;;5139797;27;20023;-74
2022/05/25 06:14:25;;;;;;;11.67;9.07;;;;;;;;;;5135787;27;20487;-73
2022/05/25 06:19:37;;;;;;;12.82;10.20;;;;;;;;;;5132025;27;20069;-74
2022/05/25 06:22:06;;;;;;;12.93;9.73;;;;;;;;;;5130840;27;20069;-74
2022/05/25 06:24:39;;;;;;;16.60;9.50;;;;;;;;;;5130539;27;20019;-73
2022/05/25 06:27:08;;;;;;;11.17;7.80;;;;;;;;;;5130496;27;20030;-74
2022/05/25 06:29:36;;;;;;;14.00;9.87;;;;;;;;;;5134200;27;20034;-74
2022/05/25 06:32:03;;;;;;;15.97;9.67;;;;;;;;;;5138948;27;20101;-73
2022/05/25 06:34:29;;;;;;;23.57;10.80;;;;;;;;;;5156590;27;20027;-74
2022/05/25 06:36:56;;;;;;;14.53;10.00;;;;;;;;;;5156642;27;20098;-74
2022/05/25 06:39:23;;;;;;;16.60;9.83;;;;;;;;;;5156472;27;20022;-74
2022/05/25 06:41:49;;;;;;;14.13;9.47;;;;;;;;;;5152213;27;20037;-73
2022/05/25 06:44:17;;;;;;;25.33;9.33;;;;;;;;;;5150796;27;20048;-74
2022/05/25 06:46:44;;;;;;;13.97;8.90;;;;;;;;;;5151029;27;20092;-74
2022/05/25 06:49:11;;;;;;;11.20;9.33;;;;;;;;;;5150883;27;20521;-74
2022/05/25 06:51:37;;;;;;;14.27;9.57;;;;;;;;;;5153700;27;20094;-74
2022/05/25 06:54:05;;;;;;;15.20;10.97;;;;;;;;;;5156347;27;20023;-74
2022/05/25 06:56:31;;;;;;;14.57;10.67;;;;;;;;;;5156028;27;20025;-73
2022/05/25 06:58:59;;;;;;;13.13;9.03;;;;;;;;;;5155689;27;20098;-73
2022/05/25 07:01:26;;;;;;;13.80;10.07;;;;;;;;;;5156047;27;20023;-74
2022/05/25 07:03:52;;;;;;;11.90;9.50;;;;;;;;;;5134480;27;20027;-74
2022/05/25 07:06:19;;;;;;;13.33;10.17;;;;;;;;;;5129953;27;20648;-74
2022/05/25 07:08:46;;;;;;;15.50;9.80;;;;;;;;;;5129726;27;20027;-73
2022/05/25 07:11:13;;;;;;;13.57;10.20;;;;;;;;;;5129928;27;20029;-73
2022/05/25 07:13:40;;;;;;;15.03;9.97;;;;;;;;;;5131716;27;20034;-73
2022/05/25 07:16:11;;;;;;;15.03;10.03;;;;;;;;;;5134391;27;20088;-73
2022/05/25 07:18:38;;;;;;;16.00;9.53;;;;;;;;;;5135067;27;20055;-73
2022/05/25 07:21:06;;;;;;;13.57;9.67;;;;;;;;;;5134961;27;20473;-73
2022/05/25 07:23:33;;;;;;;16.10;9.80;;;;;;;;;;5135211;27;20427;-73
2022/05/25 07:26:00;;;;;;;13.77;9.67;;;;;;;;;;5132274;27;20019;-73
2022/05/25 07:28:27;;;;;;;14.73;10.93;;;;;;;;;;5129463;27;20374;-74
2022/05/25 07:30:55;;;;;;;15.80;10.60;;;;;;;;;;5129421;27;20546;-74
2022/05/25 07:33:22;;;;;;;15.03;11.07;;;;;;;;;;5142513;27;20030;-74
2022/05/25 07:35:48;;;;;;;13.97;10.47;;;;;;;;;;5151609;27;20063;-73
2022/05/25 07:38:15;;;;;;;15.77;10.53;;;;;;;;;;5155277;27;20109;-73
2022/05/25 07:40:43;;;;;;;12.83;9.47;;;;;;;;;;5138386;27;20033;-73
2022/05/25 07:43:12;;;;;;;12.00;8.77;;;;;;;;;;5134453;27;20043;-74
2022/05/25 07:45:38;;;;;;;11.97;9.20;;;;;;;;;;5134546;27;20488;-73
2022/05/25 07:48:05;;;;;;;15.00;9.47;;;;;;;;;;5132067;27;20051;-73
2022/05/25 07:50:33;;;;;;;12.20;9.10;;;;;;;;;;5128878;27;20094;-74
2022/05/25 07:53:01;;;;;;;14.83;10.40;;;;;;;;;;5129043;27;20071;-74
2022/05/25 07:55:28;;;;;;;18.43;11.20;;;;;;;;;;5128573;27;20370;-73
2022/05/25 07:57:55;;;;;;;12.70;9.93;;;;;;;;;;5129680;27;20113;-73
2022/05/25 08:00:25;;;;;;;16.30;11.17;;;;;;;;;;5134195;27;20075;-73
2022/05/25 08:05:46;;;;;;;13.43;9.63;;;;;;;;;;5134137;27;20439;-72
2022/05/25 08:08:16;;;;;;;13.25;9.63;;;;;;;;;;5134067;27;20031;-72
2022/05/25 08:10:44;;;;;;;11.37;8.90;;;;;;;;;;5132592;27;20034;-73
2022/05/25 08:13:13;;;;;;;14.17;10.13;;;;;;;;;;5128573;27;20030;-73
2022/05/25 08:15:42;;;;;;;12.90;9.27;;;;;;;;;;5128216;27;20447;-73
2022/05/25 08:18:12;;;;;;;12.93;8.50;;;;;;;;;;5128629;27;20035;-73
2022/05/25 08:20:39;;;;;;;12.13;9.37;;;;;;;;;;5130142;27;20377;-73
2022/05/25 08:23:07;;;;;;;12.97;9.53;;;;;;;;;;5133759;27;20030;-73
2022/05/25 08:25:34;;;;;;;13.53;9.80;;;;;;;;;;5133698;27;20023;-73
2022/05/25 08:28:01;;;;;;;16.20;9.50;;;;;;;;;;5133755;27;20022;-73
2022/05/25 08:30:27;;;;;;;13.53;9.60;;;;;;;;;;5134167;27;20031;-73
2022/05/25 08:32:54;;;;;;;17.50;10.57;;;;;;;;;;5131692;27;20015;-73
2022/05/25 08:35:21;;;;;;;24.37;13.23;;;;;;;;;;5128225;27;20420;-73
2022/05/25 08:37:48;;;;;;;14.90;10.83;;;;;;;;;;5127982;27;20066;-73
2022/05/25 08:40:17;;;;;;;16.57;10.80;;;;;;;;;;5127914;27;20388;-73
2022/05/25 08:42:49;;;;;;;14.80;11.30;;;;;;;;;;5129306;27;20426;-73
2022/05/25 08:45:16;;;;;;;13.77;10.20;;;;;;;;;;5133264;27;20110;-73
2022/05/25 08:47:47;;;;;;;16.10;10.40;;;;;;;;;;5136427;27;20023;-73
2022/05/25 08:50:14;;;;;;;12.80;9.57;;;;;;;;;;5154206;27;20026;-72
2022/05/25 08:52:40;;;;;;;13.33;9.53;;;;;;;;;;5153876;27;20018;-73
2022/05/25 08:55:09;;;;;;;15.43;10.37;;;;;;;;;;5152591;27;20023;-73
2022/05/25 08:57:42;;;;;;;15.80;11.13;;;;;;;;;;5148264;27;20061;-73
2022/05/25 09:00:13;;;;;;;14.90;10.63;;;;;;;;;;5148276;27;20026;-72
2022/05/25 09:02:40;;;;;;;14.00;10.27;;;;;;;;;;5148635;27;20023;-72
2022/05/25 09:05:22;;;;;;;17.30;10.90;;;;;;;;;;5149542;27;20027;-73
2022/05/25 09:08:07;;;;;;;14.60;10.90;;;;;;;;;;5154429;27;20052;-73
2022/05/25 09:10:42;;;;;;;12.70;10.38;;;;;;;;;;5158201;27;20023;-73
2022/05/25 09:13:35;;;;;;;12.87;9.80;;;;;;;;;;5158202;27;20022;-72
2022/05/25 09:16:17;;;;;;;12.73;10.23;;;;;;;;;;5154253;27;20492;-73
2022/05/25 09:18:56;;;;;;;15.53;10.90;;;;;;;;;;5142350;27;20093;-73
2022/05/25 09:21:24;;;;;;;15.37;11.33;;;;;;;;;;5132007;27;20027;-73
2022/05/25 09:23:52;;;;;;;15.83;10.70;;;;;;;;;;5131827;27;20019;-73
2022/05/25 09:26:19;;;;;;;16.20;9.70;;;;;;;;;;5131837;27;20030;-73
2022/05/25 09:28:49;;;;;;;12.50;10.27;;;;;;;;;;5135276;27;20378;-72
2022/05/25 09:31:19;;;;;;;21.30;11.67;;;;;;;;;;5136981;27;20023;-73
2022/05/25 09:33:48;;;;;;;13.33;9.90;;;;;;;;;;5137190;27;20023;-73
2022/05/25 09:36:17;;;;;;;17.50;9.80;;;;;;;;;;5136810;27;20025;-73
2022/05/25 09:38:46;;;;;;;16.70;11.50;;;;;;;;;;5136986;27;20023;-72
2022/05/25 09:41:14;;;;;;;16.90;10.80;;;;;;;;;;5132507;27;20485;-72
2022/05/25 09:43:43;;;;;;;15.10;10.40;;;;;;;;;;5131231;27;20608;-73
2022/05/25 09:46:11;;;;;;;15.83;10.97;;;;;;;;;;5131588;27;20034;-73
2022/05/25 09:48:47;;;;;;;18.17;11.53;;;;;;;;;;5140938;27;20113;-73
2022/05/25 09:51:25;;;;;;;16.87;11.87;;;;;;;;;;5156060;27;20072;-73
2022/05/25 09:53:54;;;;;;;15.10;11.20;;;;;;;;;;5157172;27;20083;-73
2022/05/25 09:56:23;;;;;;;17.03;11.57;;;;;;;;;;5157363;27;20019;-73
2022/05/25 09:58:55;;;;;;;15.80;11.97;;;;;;;;;;5157464;27;20034;-73
2022/05/25 10:01:32;;;;;;;16.70;11.40;;;;;;;;;;5157255;27;20481;-72
2022/05/25 10:03:59;;;;;;;16.90;11.90;;;;;;;;;;5151630;27;20023;-72
2022/05/25 10:06:34;;;;;;;15.63;12.07;;;;;;;;;;5141963;27;20019;-73
2022/05/25 10:09:13;;;;;;;14.82;11.13;;;;;;;;;;5131182;27;20027;-73
2022/05/25 10:11:41;;;;;;;18.77;12.07;;;;;;;;;;5131034;27;20027;-73
2022/05/25 10:14:17;;;;;;;14.97;11.13;;;;;;;;;;5136410;27;20381;-73
2022/05/25 10:16:44;;;;;;;17.77;12.27;;;;;;;;;;5135828;27;20026;-72
2022/05/25 10:19:13;;;;;;;15.67;10.83;;;;;;;;;;5135896;27;20023;-73
2022/05/25 10:21:40;;;;;;;14.90;11.20;;;;;;;;;;5136062;27;20044;-73
2022/05/25 10:24:17;;;;;;;17.67;11.93;;;;;;;;;;5135598;27;20411;-73
2022/05/25 10:26:49;;;;;;;15.83;12.37;;;;;;;;;;5130758;27;20023;-73
2022/05/25 10:36:45;;;;;;;18.20;12.67;;;;;;;;;;5130293;27;20052;-73
2022/05/25 10:38:28;;;;;;;16.73;12.40;;;;;;;;;;5115184;28;20047;-73
2022/05/25 10:40:58;;;;;;;15.45;11.02;;;;;;;;;;5115208;28;20029;-73
2022/05/25 10:43:30;;;;;;;16.57;11.77;;;;;;;;;;5115142;28;20040;-73
2022/05/25 10:45:59;;;;;;;18.50;11.93;;;;;;;;;;5115175;28;20035;-73
2022/05/25 10:48:38;;;;;;;12.63;10.47;;;;;;;;;;5110175;28;20470;-73
2022/05/25 10:51:09;;;;;;;15.27;10.90;;;;;;;;;;5109331;28;20102;-72
2022/05/25 10:56:45;;;;;;;14.47;10.93;;;;;;;;;;5109634;28;20034;-73
2022/05/25 10:59:25;;;;;;;14.50;10.80;;;;;;;;;;5114782;28;20076;-73
2022/05/25 11:01:51;;;;;;;17.17;11.57;;;;;;;;;;5114722;28;20096;-73
2022/05/25 11:04:24;;;;;;;17.60;11.53;;;;;;;;;;5114655;28;20020;-72
2022/05/25 11:06:52;;;;;;;16.27;11.87;;;;;;;;;;5130020;27;20019;-73
2022/05/25 11:09:34;;;;;;;16.87;11.27;;;;;;;;;;5133009;27;20374;-73
2022/05/25 11:12:01;;;;;;;14.47;9.33;;;;;;;;;;5111546;27;20397;-73
2022/05/25 11:14:47;;;;;;;14.13;10.27;;;;;;;;;;5129516;27;20020;-73
2022/05/25 11:17:29;;;;;;;16.67;11.47;;;;;;;;;;5129603;27;20062;-73
2022/05/25 11:20:11;;;;;;;16.30;11.70;;;;;;;;;;5132055;27;20554;-73
2022/05/25 11:22:38;;;;;;;14.93;10.80;;;;;;;;;;5134983;27;20019;-73
2022/05/25 11:25:08;;;;;;;15.80;12.03;;;;;;;;;;5135007;27;20031;-73
2022/05/25 11:27:40;;;;;;;14.63;11.93;;;;;;;;;;5134457;27;20094;-73
2022/05/25 11:30:30;;;;;;;17.80;11.90;;;;;;;;;;5134710;27;20435;-73
2022/05/25 11:32:56;;;;;;;16.40;12.00;;;;;;;;;;5130282;27;20065;-73
2022/05/25 11:35:49;;;;;;;15.73;11.07;;;;;;;;;;5130969;27;20019;-73
2022/05/25 11:38:21;;;;;;;14.97;10.93;;;;;;;;;;5131834;27;20035;-73
2022/05/25 11:41:06;;;;;;;16.57;11.80;;;;;;;;;;5149744;27;20026;-73
2022/05/25 11:43:36;;;;;;;17.40;11.25;;;;;;;;;;5154913;27;20050;-72
2022/05/25 11:46:08;;;;;;;14.47;9.57;;;;;;;;;;5155174;27;20103;-73
2022/05/25 11:48:38;;;;;;;16.97;10.23;;;;;;;;;;5155198;27;20015;-73
2022/05/25 11:51:05;;;;;;;14.97;10.17;;;;;;;;;;5154994;27;20075;-73
2022/05/25 11:53:43;;;;;;;19.20;12.03;;;;;;;;;;5154594;27;20019;-73
2022/05/25 11:56:30;;;;;;;20.33;12.87;;;;;;;;;;5149563;27;20019;-73
2022/05/25 11:58:56;;;;;;;23.27;13.63;;;;;;;;;;5149403;27;20031;-73
2022/05/25 12:01:24;;;;;;;19.13;13.13;;;;;;;;;;5149577;27;20030;-72
2022/05/25 12:03:51;;;;;;;17.30;12.37;;;;;;;;;;5150258;27;20033;-72
2022/05/25 12:06:18;;;;;;;19.27;13.03;;;;;;;;;;5142102;27;20109;-72
2022/05/25 12:08:44;;;;;;;19.07;12.40;;;;;;;;;;5133986;27;20366;-72
2022/05/25 12:11:28;;;;;;;20.03;13.30;;;;;;;;;;5134430;27;20503;-73
2022/05/25 12:14:06;;;;;;;19.13;13.13;;;;;;;;;;5133938;27;20018;-72
2022/05/25 12:16:41;;;;;;;21.47;13.93;;;;;;;;;;5131610;27;20387;-73
2022/05/25 12:19:12;;;;;;;17.15;12.38;;;;;;;;;;5128523;27;20080;-72
2022/05/25 12:21:41;;;;;;;19.30;13.30;;;;;;;;;;5128409;27;20414;-73
2022/05/25 12:24:09;;;;;;;18.23;12.83;;;;;;;;;;5128283;27;20046;-73
2022/05/25 12:26:37;;;;;;;19.13;13.87;;;;;;;;;;5130033;27;20149;-73
2022/05/25 12:29:04;;;;;;;24.80;14.30;;;;;;;;;;5133739;27;20030;-73
2022/05/25 12:31:34;;;;;;;17.63;13.40;;;;;;;;;;5145389;27;20103;-73
2022/05/25 12:34:01;;;;;;;18.70;14.10;;;;;;;;;;5154377;27;20050;-73
2022/05/25 12:36:28;;;;;;;17.33;12.10;;;;;;;;;;5154137;27;20525;-73
2022/05/25 12:38:55;;;;;;;16.97;12.33;;;;;;;;;;5152107;27;20023;-73
2022/05/25 12:41:27;;;;;;;18.43;12.60;;;;;;;;;;5148557;27;20050;-73
2022/05/25 12:43:55;;;;;;;20.03;12.07;;;;;;;;;;5148460;27;20079;-73
2022/05/25 12:49:38;;;;;;;17.93;12.03;;;;;;;;;;5077481;27;20025;-73
2022/05/25 12:52:23;;;;;;;17.37;12.50;;;;;;;;;;5153530;27;20015;-73
2022/05/25 12:54:50;;;;;;;;;;;;;;;;;;5154559;27;20034;-73
2022/05/25 12:57:25;;;;;;;17.80;12.37;;;;;;;;;;5153735;27;20370;-73
2022/05/25 12:59:51;;;;;;;15.57;12.65;;;;;;;;;;5153875;27;20093;-73
2022/05/25 13:02:21;;;;;;;19.00;13.77;;;;;;;;;;5130038;27;20031;-73
2022/05/25 13:04:55;;;;;;;19.23;13.73;;;;;;;;;;5128072;27;20023;-71
2022/05/25 13:07:23;;;;;;;18.50;13.83;;;;;;;;;;5137559;27;20058;-71
2022/05/25 13:09:51;;;;;;;21.77;13.77;;;;;;;;;;5136895;27;20027;-71
2022/05/25 13:12:36;;;;;;;17.50;13.17;;;;;;;;;;5131859;28;20097;-71
2022/05/25 13:15:05;;;;;;;17.73;12.75;;;;;;;;;;5132951;28;20039;-71
2022/05/25 13:17:42;;;;;;;26.30;13.87;;;;;;;;;;5132930;28;20493;-71
2022/05/25 13:20:13;;;;;;;18.80;13.27;;;;;;;;;;5133197;28;20020;-71
2022/05/25 13:22:40;;;;;;;19.23;13.30;;;;;;;;;;5145432;27;20031;-71
2022/05/25 13:25:06;;;;;;;22.73;13.20;;;;;;;;;;5147920;27;20037;-71
2022/05/25 13:27:33;;;;;;;18.77;12.80;;;;;;;;;;5148519;27;20022;-72
2022/05/25 13:30:02;;;;;;;17.73;13.73;;;;;;;;;;5148022;27;20103;-72
2022/05/25 13:32:38;;;;;;;25.67;14.83;;;;;;;;;;5148160;27;20023;-72
2022/05/25 13:35:14;;;;;;;24.30;16.50;;;;;;;;;;5153268;27;20023;-72
2022/05/25 13:37:41;;;;;;;24.93;18.27;;;;;;;;;;5153249;27;20029;-72
2022/05/25 13:40:11;;;;;;;33.87;22.60;;;;;;;;;;5153372;27;20026;-71
2022/05/25 13:42:41;;;;;;;23.27;18.23;;;;;;;;;;5152620;27;20127;-72
2022/05/25 13:45:10;;;;;;;21.97;18.27;;;;;;;;;;5153094;27;20022;-71
2022/05/25 13:47:37;;;;;;;34.77;20.60;;;;;;;;;;5147882;27;20029;-72
2022/05/25 13:50:04;;;;;;;33.57;20.13;;;;;;;;;;5147885;27;20509;-72
2022/05/25 13:52:35;;;;;;;34.53;22.80;;;;;;;;;;5137329;27;20430;-72
2022/05/25 13:55:06;;;;;;;31.17;19.97;;;;;;;;;;5129537;27;20037;-72
2022/05/25 13:57:35;;;;;;;28.83;19.93;;;;;;;;;;5136554;27;20504;-72
2022/05/25 14:00:13;;;;;;;28.87;19.20;;;;;;;;;;5136577;27;20102;-72
2022/05/25 14:02:43;;;;;;;26.53;18.23;;;;;;;;;;5136619;27;20058;-72
2022/05/25 14:05:10;;;;;;;22.33;16.67;;;;;;;;;;5136144;27;20023;-72
2022/05/25 14:07:39;;;;;;;26.40;15.97;;;;;;;;;;5135795;27;20034;-72
2022/05/25 14:13:10;;;;;;;22.03;16.73;;;;;;;;;;5131117;27;20034;-72
2022/05/25 14:15:38;;;;;;;20.47;15.90;;;;;;;;;;5130671;27;20031;-72
2022/05/25 14:18:04;;;;;;;20.00;15.47;;;;;;;;;;5132151;27;20027;-72
2022/05/25 14:20:31;;;;;;;20.53;15.67;;;;;;;;;;5136192;27;20023;-72
2022/05/25 14:22:59;;;;;;;25.83;13.93;;;;;;;;;;5149624;27;20496;-71
2022/05/25 14:25:29;;;;;;;21.27;15.13;;;;;;;;;;5156633;27;20025;-72
2022/05/25 14:27:56;;;;;;;22.83;14.77;;;;;;;;;;5156686;27;20027;-72
2022/05/25 14:30:31;;;;;;;18.07;13.97;;;;;;;;;;5154940;27;20027;-73
2022/05/25 14:33:05;;;;;;;20.87;13.83;;;;;;;;;;5151182;27;20030;-72
2022/05/25 14:35:33;;;;;;;22.63;15.07;;;;;;;;;;5151010;27;20082;-73
2022/05/25 14:38:04;;;;;;;18.70;14.40;;;;;;;;;;5150843;27;20515;-73
2022/05/25 14:40:33;;;;;;;20.10;15.83;;;;;;;;;;5152640;27;20023;-73
2022/05/25 14:43:03;;;;;;;18.93;12.63;;;;;;;;;;5154051;27;20050;-73
2022/05/25 14:45:31;;;;;;;15.27;12.33;;;;;;;;;;5135601;27;20432;-73
2022/05/25 14:48:05;;;;;;;16.80;12.47;;;;;;;;;;5135643;27;20374;-73
2022/05/25 14:50:32;;;;;;;18.90;12.45;;;;;;;;;;5135596;27;20019;-73
2022/05/25 14:53:09;;;;;;;12.97;10.57;;;;;;;;;;5133044;27;20023;-73
2022/05/25 14:55:38;;;;;;;16.93;12.30;;;;;;;;;;5130233;27;20042;-73
2022/05/25 14:58:20;;;;;;;15.70;12.40;;;;;;;;;;5129632;27;20822;-73
2022/05/25 15:00:52;;;;;;;16.73;11.97;;;;;;;;;;5129810;27;20377;-74
2022/05/25 15:03:37;;;;;;;15.63;12.40;;;;;;;;;;5132636;27;20022;-74
2022/05/25 15:06:03;;;;;;;14.45;12.38;;;;;;;;;;5134005;27;20019;-73
2022/05/25 15:08:32;;;;;;;15.70;12.33;;;;;;;;;;5145930;27;20027;-73